Latest Weather Observations for Fawkner Beacon

IDV60801

Issued at 5:12 am EDT Tuesday 19 October 2021 (issued every 10 minutes, with the page automatically refreshed every 10 minutes)

About weather observations | Map of weather stations | Latest weather observations for VIC | Other Formats
Station Details ID: 086376 Name: FAWKNER BEACON Lat: -37.95 Lon: 144.93 Height: 17.0 m
Data from the previous 72 hours. | See also: Recent months at Fawkner Beacon
Date/Time
EDT
Temp
°C
App
Temp
°C
Dew
Point
°C
Rel
Hum
%
Delta-T
°C
Wind Press
QNH
hPa
Press
MSL
hPa
Rain since
9am
mm
Dir  Spd
km/h
Gust
km/h
Spd
kts
Gust
kts
19/05:00am - - - - - WSW 19 24 10 13 - - -
19/04:30am - - - - - SW 19 24 10 13 - - -
19/04:00am - - - - - SSW 22 28 12 15 - - -
19/03:30am - - - - - WSW 28 32 15 17 - - -
19/03:00am - - - - - WSW 26 30 14 16 - - -
19/02:30am - - - - - WSW 26 32 14 17 - - -
19/02:00am - - - - - SW 22 26 12 14 - - -
19/01:30am - - - - - WSW 20 24 11 13 - - -
19/01:00am - - - - - SW 22 26 12 14 - - -
19/12:30am - - - - - SW 20 26 11 14 - - -
19/12:00am - - - - - SSW 22 28 12 15 - - -
 
Date/Time
EDT
Temp
°C
App
Temp
°C
Dew
Point
°C
Rel
Hum
%
Delta-T
°C
Wind Press
QNH
hPa
Press
MSL
hPa
Rain since
9am
mm
Dir  Spd
km/h
Gust
km/h
Spd
kts
Gust
kts
18/11:30pm - - - - - SW 24 30 13 16 - - -
18/11:00pm - - - - - SSW 28 32 15 17 - - -
18/10:30pm - - - - - SSW 30 33 16 18 - - -
18/10:00pm - - - - - SSW 33 41 18 22 - - -
18/09:30pm - - - - - SSW 30 35 16 19 - - -
18/09:00pm - - - - - SSW 32 43 17 23 - - -
18/08:42pm - - - - - SSW 28 46 15 25 - - -
18/08:30pm - - - - - SSW 26 32 14 17 - - -
18/08:00pm - - - - - SSW 30 33 16 18 - - -
18/07:30pm - - - - - S 30 35 16 19 - - -
18/07:00pm - - - - - S 32 35 17 19 - - -
18/06:30pm - - - - - S 33 43 18 23 - - -
18/06:00pm - - - - - SSW 32 35 17 19 - - -
18/05:30pm - - - - - S 28 32 15 17 - - -
18/05:00pm - - - - - S 26 30 14 16 - - -
18/04:30pm - - - - - S 30 32 16 17 - - -
18/04:00pm - - - - - S 26 30 14 16 - - -
18/03:30pm - - - - - SW 22 30 12 16 - - -
18/03:00pm - - - - - SW 13 17 7 9 - - -
18/02:30pm - - - - - SSW 11 15 6 8 - - -
18/02:00pm - - - - - SW 15 20 8 11 - - -
18/01:30pm - - - - - SW 24 28 13 15 - - -
18/01:00pm - - - - - SW 15 17 8 9 - - -
18/12:30pm - - - - - WSW 13 15 7 8 - - -
18/12:00pm - - - - - WSW 11 13 6 7 - - -
18/11:30am - - - - - WSW 13 17 7 9 - - -
18/11:00am - - - - - WSW 11 15 6 8 - - -
18/10:30am - - - - - WSW 15 20 8 11 - - -
18/10:00am - - - - - WSW 17 22 9 12 - - -
18/09:30am - - - - - WSW 17 22 9 12 - - -
18/09:00am - - - - - WSW 13 17 7 9 - - -
18/08:30am - - - - - W 15 17 8 9 - - -
18/08:00am - - - - - WNW 20 24 11 13 - - -
18/07:30am - - - - - WNW 22 30 12 16 - - -
18/07:00am - - - - - WNW 22 26 12 14 - - -
18/06:30am - - - - - WNW 20 28 11 15 - - -
18/06:00am - - - - - WNW 15 22 8 12 - - -
18/05:30am - - - - - NW 17 20 9 11 - - -
18/05:00am - - - - - NW 13 15 7 8 - - -
18/04:30am - - - - - NNW 15 17 8 9 - - -
18/04:00am - - - - - NNW 17 22 9 12 - - -
18/03:30am - - - - - NNW 15 20 8 11 - - -
18/03:00am - - - - - NNW 13 15 7 8 - - -
18/02:30am - - - - - N 7 7 4 4 - - -
18/02:00am - - - - - N 6 7 3 4 - - -
18/01:30am - - - - - N 9 11 5 6 - - -
18/01:00am - - - - - NE 11 15 6 8 - - -
18/12:30am - - - - - ENE 13 15 7 8 - - -
18/12:00am - - - - - ENE 11 15 6 8 - - -
 
Date/Time
EDT
Temp
°C
App
Temp
°C
Dew
Point
°C
Rel
Hum
%
Delta-T
°C
Wind Press
QNH
hPa
Press
MSL
hPa
Rain since
9am
mm
Dir  Spd
km/h
Gust
km/h
Spd
kts
Gust
kts
17/11:30pm - - - - - ENE 9 13 5 7 - - -
17/11:00pm - - - - - E 11 13 6 7 - - -
17/10:30pm - - - - - E 11 13 6 7 - - -
17/10:00pm - - - - - ESE 9 13 5 7 - - -
17/09:30pm - - - - - SE 9 13 5 7 - - -
17/09:00pm - - - - - SE 11 13 6 7 - - -
17/08:30pm - - - - - SE 13 15 7 8 - - -
17/08:00pm - - - - - SSE 13 15 7 8 - - -
17/07:30pm - - - - - SE 13 15 7 8 - - -
17/07:00pm - - - - - SSE 15 17 8 9 - - -
17/06:30pm - - - - - SSE 13 15 7 8 - - -
17/06:00pm - - - - - SE 9 13 5 7 - - -
17/05:30pm - - - - - SSE 11 13 6 7 - - -
17/05:00pm - - - - - SSE 13 15 7 8 - - -
17/04:30pm - - - - - SSE 13 15 7 8 - - -
17/04:00pm - - - - - SSE 13 15 7 8 - - -
17/03:30pm - - - - - SSE 13 15 7 8 - - -
17/03:00pm - - - - - SE 9 11 5 6 - - -
17/02:30pm - - - - - SSE 11 15 6 8 - - -
17/02:00pm - - - - - ESE 9 11 5 6 - - -
17/01:30pm - - - - - SW 6 13 3 7 - - -
17/01:00pm - - - - - CALM 0 0 0 0 - - -
17/12:30pm - - - - - WSW 6 9 3 5 - - -
17/12:00pm - - - - - WSW 7 15 4 8 - - -
17/11:30am - - - - - WNW 7 11 4 6 - - -
17/11:00am - - - - - NW 11 15 6 8 - - -
17/10:30am - - - - - NW 11 15 6 8 - - -
17/10:00am - - - - - WNW 11 13 6 7 - - -
17/09:30am - - - - - W 13 17 7 9 - - -
17/09:00am - - - - - WNW 13 17 7 9 - - -
17/08:30am - - - - - WNW 15 17 8 9 - - -
17/08:00am - - - - - W 22 28 12 15 - - -
17/07:30am - - - - - WNW 20 24 11 13 - - -
17/07:00am - - - - - W 24 30 13 16 - - -
17/06:30am - - - - - W 26 30 14 16 - - -
17/06:00am - - - - - W 24 28 13 15 - - -
17/05:30am - - - - - W 24 28 13 15 - - -
17/05:00am - - - - - W 20 24 11 13 - - -
17/04:30am - - - - - W 22 24 12 13 - - -
17/04:00am - - - - - W 20 24 11 13 - - -
17/03:30am - - - - - W 22 28 12 15 - - -
17/03:00am - - - - - W 28 35 15 19 - - -
17/02:30am - - - - - W 22 30 12 16 - - -
17/02:00am - - - - - W 20 24 11 13 - - -
17/01:30am - - - - - WSW 24 28 13 15 - - -
17/01:00am - - - - - W 26 30 14 16 - - -
17/12:30am - - - - - WSW 26 30 14 16 - - -
17/12:00am - - - - - SW 24 28 13 15 - - -
 
Date/Time
EDT
Temp
°C
App
Temp
°C
Dew
Point
°C
Rel
Hum
%
Delta-T
°C
Wind Press
QNH
hPa
Press
MSL
hPa
Rain since
9am
mm
Dir  Spd
km/h
Gust
km/h
Spd
kts
Gust
kts
16/11:30pm - - - - - SW 24 30 13 16 - - -
16/11:00pm - - - - - SW 24 30 13 16 - - -
16/10:30pm - - - - - SW 20 24 11 13 - - -
16/10:00pm - - - - - SW 26 32 14 17 - - -
16/09:30pm - - - - - SSW 28 33 15 18 - - -
16/09:00pm - - - - - SSW 33 41 18 22 - - -
16/08:30pm - - - - - SSW 39 44 21 24 - - -
16/08:00pm - - - - - SSW 37 44 20 24 - - -
16/07:30pm - - - - - SSW 39 46 21 25 - - -
16/07:00pm - - - - - S 39 46 21 25 - - -
16/06:30pm - - - - - SSW 39 44 21 24 - - -
16/06:00pm - - - - - SSW 43 50 23 27 - - -
16/05:30pm - - - - - S 41 48 22 26 - - -
16/05:00pm - - - - - SSW 41 46 22 25 - - -
16/04:30pm - - - - - SSW 39 46 21 25 - - -
16/04:00pm - - - - - S 39 46 21 25 - - -
16/03:30pm - - - - - S 41 46 22 25 - - -
16/03:00pm - - - - - SSW 33 43 18 23 - - -
16/02:30pm - - - - - SSW 39 46 21 25 - - -
16/02:00pm - - - - - SSW 30 35 16 19 - - -
16/01:30pm - - - - - SSW 33 41 18 22 - - -
16/01:00pm - - - - - SSW 39 50 21 27 - - -
16/12:30pm - - - - - SSW 35 43 19 23 - - -
16/12:00pm - - - - - SW 41 46 22 25 - - -
16/11:30am - - - - - SW 43 50 23 27 - - -
16/11:00am - - - - - SW 43 50 23 27 - - -
16/10:30am - - - - - SSW 41 46 22 25 - - -
16/10:00am - - - - - SSW 44 57 24 31 - - -
16/09:37am - - - - - SW 39 57 21 31 - - -
16/09:30am - - - - - SW 43 50 23 27 - - -
16/09:00am - - - - - SW 50 59 27 32 - - -
16/08:30am - - - - - SW 44 52 24 28 - - -
16/08:00am - - - - - SW 50 61 27 33 - - -
16/07:40am - - - - - SW 50 69 27 37 - - -
16/07:30am - - - - - SW 46 57 25 31 - - -
16/07:00am - - - - - SW 52 63 28 34 - - -
16/06:30am - - - - - SW 48 57 26 31 - - -
16/06:00am - - - - - SW 52 65 28 35 - - -
16/05:31am - - - - - SSW 50 69 27 37 - - -
16/05:30am - - - - - SSW 52 69 28 37 - - -

Other formats

Comma delimited format used in spreadsheet applications
http://www.bom.gov.au/fwo/IDV60801/IDV60801.95872.axf

JavaScript Object Notation format (JSON) in row-major order
http://www.bom.gov.au/fwo/IDV60801/IDV60801.95872.json

Data quality

Most of these data are generated automatically and are frequently updated. Quality checks on data are not normally performed. It is possible for incorrect values to appear. Refer to information at About Latest Weather Observations and please check the disclaimer before using these data.